AirNav   Everest Fuels
 
 1481 users online  

86PA 7D Farms Heliport
Tipton, Pennsylvania, USA

GOING TO TIPTON?


FAA INFORMATION EFFECTIVE 02 JANUARY 2020

Location

FAA Identifier: 86PA
Lat/Long: 40-38-40.2310N 078-18-02.0520W
40-38.670517N 078-18.034200W
40.6445086,-78.3005700
(estimated)
Elevation: 1080 ft. / 329 m (estimated)
Variation: 10W (1995)
From city: 1 mile N of TIPTON, PA
Time zone: UTC -5 (UTC -4 during Daylight Saving Time)
Zip code: 16686

Heliport Operations

Heliport use: Private use. Permission required prior to landing
Activation date: 01/1997
Control tower: no
ARTCC: NEW YORK CENTER
FSS: ALTOONA FLIGHT SERVICE STATION
Attendance: UNATNDD
Wind indicator: yes
Segmented circle: no

Heliport Communications

WX AWOS-3 at PSB (17 nm NE): 127.525 (814-343-4531)

Nearby radio navigation aids

VOR radial/distance  VOR name  Freq  Var
RECr083/21.2REVLOC VOR/DME110.6009W
PSBr231/21.5PHILIPSBURG VORTAC115.5010W
JSTr057/31.3JOHNSTOWN VOR/DME113.0006W
ETGr202/35.0KEATING VORTAC116.0010W

Heliport Services

Runway Information

Helipad H1

Dimensions: 20 x 20 ft. / 6 x 6 m
Surface: turf
Operational restrictions: INGRESS/EGRESS 065-245 DEGS.
Traffic pattern: leftleft

Helipad H2

Dimensions: 20 x 20 ft. / 6 x 6 m
Surface: turf
Operational restrictions: INGRESS/EGRESS165-345 DEGS.
Traffic pattern: leftleft

Heliport Ownership and Management from official FAA records

Ownership: Privately-owned
Owner: BRUNO A. DE GOL, JR.
3229 PLEASANT VALLEY BLVD.
ALTOONA, PA 16602
Phone 814-941-7777
Manager: BRUNO A. DE GOL, JR.
3229 PLEASANT VALLEY BLVD.
ALTOONA, PA 16602
Phone 814-941-7777

Heliport Operational Statistics

Aircraft based on the field: 1
Helicopters: 1
    

Additional Remarks

FOR CD CTC NEW YORK ARTCC AT 631-468-1425.

Instrument Procedures

There are no published instrument procedures at 86PA.

Some nearby airports with instrument procedures:

KPSB - Mid-State Airport (17 nm NE)
KAOO - Altoona-Blair County Airport (21 nm S)
KUNV - University Park Airport (24 nm NE)
9G8 - Ebensburg Airport (24 nm SW)
KFIG - Clearfield-Lawrence Airport (25 nm N)
 
Loc | Ops | Rwys | IFR | FBO | Links
Com | Nav | Svcs | Stats | Notes
Area around 86PA (7D Farms Heliport)
 
Road maps at: MapQuest Bing Google
 
Aerial photo
No photo
 
Sectional chart

 
Airport distance calculator
Flying to 7D Farms Heliport? Find the distance to fly.

From to 86PA

Sunrise and sunset
Times for 23-Jan-2020
 Local
(UTC-5)
 Zulu
(UTC)
Morning civil twilight07:0212:02
Sunrise07:3212:32
Sunset17:1922:19
Evening civil twilight17:4822:48

Current date and time
Zulu (UTC)  23-Jan-2020 22:58:12
Local (UTC-5)  23-Jan-2020 17:58:12
 
METAR
KAOO 
21nm S 
232253Z AUTO 00000KT 10SM CLR 00/M06 A3026 RMK AO2 SLP266 T00001056
KUNV 
25nm NE 
232253Z 00000KT 10SM SKC M01/M07 A3027
KFIG 
25nm N 
232254Z AUTO 05006KT 10SM CLR 01/M09 A3024 RMK AO2 SLP262 T00111089 $
KRVL 
31nm E 
232255Z AUTO 00000KT 8SM CLR 00/M05 A3030 RMK AO2
KJST 
31nm SW 
232254Z AUTO 00000KT 10SM CLR 03/M09 A3019 RMK AO2 SLP245 T00281094
KHMZ 
35nm S 
232230Z AUTO 00000KT 10SM CLR 01/M06 A3027 RMK AO2 T00071057
KIDI 
36nm W 
232255Z AUTO 12004KT 10SM SCT120 02/M05 A3025 RMK A01
TAF
KAOO 
21nm S 
232212Z 2322/2418 VRB03KT P6SM BKN200 FM240500 VRB02KT P6SM OVC100 FM241500 09003KT P6SM OVC050
KUNV 
25nm NE 
231133Z 2312/2412 00000KT P6SM FEW250 FM231600 VRB03KT P6SM BKN250
NOTAMs
Click for the latest NOTAMs
NOTAMs are issued by the DoD/FAA and will open in a separate window not controlled by AirNav.

 

 
 

Would you like to see your business listed on this page?

 If your business provides an interesting product or service to pilots, flight crews, aircraft, or users of the 7D Farms Heliport, you should consider listing it here.  To start the listing process, click on the button below
 
Add a business
 

Other Pages about 7D Farms Heliport

Update a link
 
Copyright © AirNav, LLC. All rights reserved. Privacy Policy  Contact